createdAt,value
2024-03-01T00:00:09.065Z,99383.43
2024-03-01T00:02:36.325Z,99383.98
2024-03-01T00:05:04.574Z,99382.90
2024-03-01T00:07:31.805Z,99382.53
2024-03-01T00:09:58.914Z,99380.91
2024-03-01T00:12:27.370Z,99379.83
2024-03-01T00:14:54.623Z,99378.90
2024-03-01T00:17:21.764Z,99375.91
2024-03-01T00:19:50.486Z,99374.34
2024-03-01T00:22:18.271Z,99370.88
2024-03-01T00:24:45.457Z,99373.30
2024-03-01T00:27:13.637Z,99371.18
2024-03-01T00:29:40.789Z,99368.36
2024-03-01T00:32:08.158Z,99365.02
2024-03-01T00:34:36.562Z,99366.20
2024-03-01T00:37:03.674Z,99368.45
2024-03-01T00:39:30.498Z,99362.71
2024-03-01T00:41:58.875Z,99362.00
2024-03-01T00:44:25.948Z,99359.73
2024-03-01T00:46:53.093Z,99357.65
2024-03-01T00:49:21.724Z,99359.71
2024-03-01T00:51:49.141Z,99355.85
2024-03-01T00:54:16.371Z,99350.96
2024-03-01T00:56:44.745Z,99348.84
2024-03-01T00:59:11.898Z,99344.48
2024-03-01T01:01:39.009Z,99343.39
2024-03-01T01:04:07.532Z,99342.54
2024-03-01T01:06:34.993Z,99338.68
2024-03-01T01:09:02.143Z,99336.91
2024-03-01T01:11:30.444Z,99331.31
2024-03-01T01:13:57.581Z,99329.72
2024-03-01T01:16:24.793Z,99323.96
2024-03-01T01:18:53.109Z,99322.40
2024-03-01T01:21:20.242Z,99317.35
2024-03-01T01:23:47.175Z,99313.20
2024-03-01T01:26:15.456Z,99307.14
2024-03-01T01:28:42.493Z,99308.53
2024-03-01T01:31:09.478Z,99308.56
2024-03-01T01:33:37.815Z,99306.48
2024-03-01T01:36:04.868Z,99304.23
2024-03-01T01:38:31.915Z,99299.55
2024-03-01T01:41:00.202Z,99300.74
2024-03-01T01:43:27.270Z,99298.84
2024-03-01T01:45:54.506Z,99291.84
2024-03-01T01:48:22.769Z,99289.75
2024-03-01T01:50:49.748Z,99283.85
2024-03-01T01:53:21.458Z,99275.39
2024-03-01T01:55:53.225Z,99273.51
2024-03-01T01:58:20.195Z,99261.13
2024-03-01T02:00:47.219Z,99262.87
2024-03-01T02:03:15.379Z,99260.27
2024-03-01T02:05:42.327Z,99259.53
2024-03-01T02:08:09.477Z,99259.86
2024-03-01T02:10:37.706Z,99260.53
2024-03-01T02:13:04.732Z,99255.10
2024-03-01T02:15:31.770Z,99254.71
2024-03-01T02:17:59.977Z,99241.61
2024-03-01T02:20:27.092Z,99244.20
2024-03-01T02:22:53.918Z,99243.30
2024-03-01T02:25:22.100Z,99236.10
2024-03-01T02:27:49.230Z,99233.10
2024-03-01T02:30:16.726Z,99230.64
2024-03-01T02:32:45.094Z,99232.90
2024-03-01T02:35:12.118Z,99233.98
2024-03-01T02:37:39.680Z,99229.44
2024-03-01T02:40:07.996Z,99228.39
2024-03-01T02:42:35.088Z,99229.27
2024-03-01T02:45:01.945Z,99228.79
2024-03-01T02:47:30.046Z,99221.83
2024-03-01T02:49:57.495Z,99224.12
2024-03-01T02:52:24.473Z,99216.66
2024-03-01T02:54:52.864Z,99210.22
2024-03-01T02:57:19.824Z,99203.09
2024-03-01T02:59:46.770Z,99195.23
2024-03-01T03:02:14.955Z,99189.30
2024-03-01T03:04:42.104Z,99194.56
2024-03-01T03:07:10.975Z,99194.42
2024-03-01T03:09:39.773Z,99195.17
2024-03-01T03:12:06.838Z,99196.41
2024-03-01T03:14:34.277Z,99194.86
2024-03-01T03:17:02.560Z,99195.09
2024-03-01T03:19:29.914Z,99193.59
2024-03-01T03:21:57.195Z,99199.44
2024-03-01T03:24:25.653Z,99202.02
2024-03-01T03:26:52.801Z,99202.58
2024-03-01T03:29:19.953Z,99200.71
2024-03-01T03:31:48.138Z,99197.52
2024-03-01T03:34:15.276Z,99197.73
2024-03-01T03:36:42.198Z,99191.27
2024-03-01T03:39:10.481Z,99189.65
2024-03-01T03:41:37.632Z,99189.64
2024-03-01T03:44:04.575Z,99186.14
2024-03-01T03:46:32.834Z,99183.69
2024-03-01T03:49:00.021Z,99181.77
2024-03-01T03:51:26.958Z,99177.58
2024-03-01T03:53:55.334Z,99176.69
2024-03-01T03:56:22.685Z,99172.15
2024-03-01T03:58:49.831Z,99170.59
2024-03-01T04:01:19.727Z,99172.52
2024-03-01T04:03:48.219Z,99168.70
2024-03-01T04:06:16.626Z,99168.37
2024-03-01T04:08:43.744Z,99170.99
2024-03-01T04:11:10.721Z,99174.54
2024-03-01T04:13:39.037Z,99172.66
2024-03-01T04:16:06.115Z,99177.10
2024-03-01T04:18:33.168Z,99184.16
2024-03-01T04:21:01.426Z,99192.69
2024-03-01T04:23:28.267Z,99194.11
2024-03-01T04:25:55.338Z,99194.30
2024-03-01T04:28:23.756Z,99198.59
2024-03-01T04:30:51.003Z,99201.23
2024-03-01T04:33:17.944Z,99200.73
2024-03-01T04:35:46.169Z,99203.36
2024-03-01T04:38:13.525Z,99201.30
2024-03-01T04:40:40.539Z,99200.77
2024-03-01T04:43:09.178Z,99198.13
2024-03-01T04:45:36.383Z,99198.79
2024-03-01T04:48:03.646Z,99194.23
2024-03-01T04:50:32.145Z,99187.39
2024-03-01T04:52:59.403Z,99187.17
2024-03-01T04:55:26.416Z,99193.40
2024-03-01T04:57:54.964Z,99189.52
2024-03-01T05:00:22.146Z,99186.55
2024-03-01T05:02:49.216Z,99185.84
2024-03-01T05:05:17.643Z,99184.96
2024-03-01T05:07:44.633Z,99186.35
2024-03-01T05:10:12.127Z,99179.23
2024-03-01T05:12:40.503Z,99183.59
2024-03-01T05:15:07.663Z,99185.87
2024-03-01T05:17:34.675Z,99193.87
2024-03-01T05:20:03.358Z,99197.36
2024-03-01T05:22:30.396Z,99198.23
2024-03-01T05:24:57.358Z,99192.66
2024-03-01T05:27:25.512Z,99192.17
2024-03-01T05:29:52.372Z,99190.96
2024-03-01T05:32:19.441Z,99193.93
2024-03-01T05:34:47.577Z,99195.15
2024-03-01T05:37:14.347Z,99198.41
2024-03-01T05:39:41.353Z,99200.66
2024-03-01T05:42:09.937Z,99200.14
2024-03-01T05:44:36.888Z,99199.75
2024-03-01T05:47:03.824Z,99198.13
2024-03-01T05:49:32.026Z,99196.85
2024-03-01T05:51:59.070Z,99194.52
2024-03-01T05:54:25.997Z,99199.88
2024-03-01T05:56:54.268Z,99201.23
2024-03-01T05:59:21.104Z,99206.92
2024-03-01T06:01:48.048Z,99210.55
2024-03-01T06:04:16.466Z,99210.83
2024-03-01T06:06:43.911Z,99215.09
2024-03-01T06:09:10.965Z,99210.80
2024-03-01T06:11:39.250Z,99215.24
2024-03-01T06:14:06.281Z,99215.12
2024-03-01T06:16:33.450Z,99214.98
2024-03-01T06:19:02.037Z,99210.10
2024-03-01T06:21:29.339Z,99201.73
2024-03-01T06:23:56.299Z,99193.70
2024-03-01T06:26:24.564Z,99205.19
2024-03-01T06:28:51.405Z,99215.29
2024-03-01T06:31:18.500Z,99205.69
2024-03-01T06:33:46.739Z,99210.95
2024-03-01T06:36:13.791Z,99215.90
2024-03-01T06:38:40.946Z,99213.89
2024-03-01T06:41:09.309Z,99219.63
2024-03-01T06:43:36.482Z,99214.16
2024-03-01T06:46:03.540Z,99214.06
2024-03-01T06:48:32.018Z,99211.17
2024-03-01T06:50:59.152Z,99204.40
2024-03-01T06:53:28.215Z,99199.55
2024-03-01T06:55:57.734Z,99187.91
2024-03-01T06:58:24.686Z,99188.98
2024-03-01T07:00:51.831Z,99181.14
2024-03-01T07:03:20.309Z,99184.45
2024-03-01T07:05:47.247Z,99181.32
2024-03-01T07:08:14.205Z,99180.78
2024-03-01T07:10:42.490Z,99176.75
2024-03-01T07:13:09.421Z,99172.69
2024-03-01T07:15:37.589Z,99171.48
2024-03-01T07:18:06.651Z,99171.64
2024-03-01T07:20:33.605Z,99164.19
2024-03-01T07:23:00.669Z,99164.52
2024-03-01T07:25:28.866Z,99158.52
2024-03-01T07:27:56.211Z,99161.84
2024-03-01T07:30:23.051Z,99157.97
2024-03-01T07:32:51.357Z,99148.30
2024-03-01T07:35:18.764Z,99155.23
2024-03-01T07:37:45.730Z,99156.14
2024-03-01T07:40:14.237Z,99154.90
2024-03-01T07:42:41.240Z,99143.32
2024-03-01T07:45:08.179Z,99148.70
2024-03-01T07:47:36.585Z,99148.30
2024-03-01T07:50:03.701Z,99149.64
2024-03-01T07:52:30.574Z,99149.03
2024-03-01T07:54:58.887Z,99149.64
2024-03-01T07:57:25.980Z,99154.44
2024-03-01T07:59:52.912Z,99154.52
2024-03-01T08:02:21.211Z,99148.95
2024-03-01T08:04:48.172Z,99145.87
2024-03-01T08:07:15.114Z,99144.23
2024-03-01T08:09:43.486Z,99144.15
2024-03-01T08:12:11.116Z,99141.10
2024-03-01T08:14:38.060Z,99134.88
2024-03-01T08:17:06.340Z,99136.00
2024-03-01T08:19:33.463Z,99134.59
2024-03-01T08:22:00.668Z,99135.27
2024-03-01T08:24:29.032Z,99135.59
2024-03-01T08:26:56.171Z,99138.77
2024-03-01T08:29:23.321Z,99142.83
2024-03-01T08:31:51.601Z,99144.42
2024-03-01T08:34:18.671Z,99135.08
2024-03-01T08:36:46.006Z,99134.33
2024-03-01T08:39:14.484Z,99133.39
2024-03-01T08:41:41.521Z,99129.83
2024-03-01T08:44:08.568Z,99125.94
2024-03-01T08:46:36.938Z,99126.43
2024-03-01T08:49:04.240Z,99128.02
2024-03-01T08:51:31.149Z,99123.99
2024-03-01T08:53:59.314Z,99119.41
2024-03-01T08:56:26.661Z,99121.07
2024-03-01T08:58:53.882Z,99128.29
2024-03-01T09:01:22.435Z,99127.84
2024-03-01T09:03:49.440Z,99124.36
2024-03-01T09:06:16.382Z,99125.65
2024-03-01T09:08:44.556Z,99127.42
2024-03-01T09:11:11.524Z,99117.37
2024-03-01T09:13:38.600Z,99119.24
2024-03-01T09:16:06.972Z,99124.17
2024-03-01T09:18:33.969Z,99126.18
2024-03-01T09:21:00.925Z,99124.05
2024-03-01T09:23:29.083Z,99121.90
2024-03-01T09:25:56.131Z,99121.06
2024-03-01T09:28:23.172Z,99124.41
2024-03-01T09:30:51.468Z,99119.72
2024-03-01T09:33:20.566Z,99122.77
2024-03-01T09:35:50.256Z,99118.34
2024-03-01T09:38:17.533Z,99117.98
2024-03-01T09:40:44.415Z,99109.06
2024-03-01T09:43:12.647Z,99107.44
2024-03-01T09:45:39.589Z,99112.60
2024-03-01T09:48:06.661Z,99104.36
2024-03-01T09:50:35.155Z,99100.90
2024-03-01T09:53:02.255Z,99099.86
2024-03-01T09:55:29.199Z,99100.58
2024-03-01T09:57:57.607Z,99098.14
2024-03-01T10:00:24.842Z,99103.59
2024-03-01T10:02:51.895Z,99097.65
2024-03-01T10:05:21.591Z,99096.36
2024-03-01T10:07:49.038Z,99088.16
2024-03-01T10:10:15.959Z,99089.55
2024-03-01T10:12:44.397Z,99089.66
2024-03-01T10:15:11.525Z,99082.62
2024-03-01T10:17:39.165Z,99086.67
2024-03-01T10:20:07.668Z,99088.85
2024-03-01T10:22:34.743Z,99087.52
2024-03-01T10:25:01.891Z,99085.89
2024-03-01T10:27:31.280Z,99093.73
2024-03-01T10:29:58.595Z,99089.32
2024-03-01T10:32:25.817Z,99082.07
2024-03-01T10:34:54.446Z,99088.06
2024-03-01T10:37:21.332Z,99088.08
2024-03-01T10:39:48.830Z,99086.92
2024-03-01T10:42:17.005Z,99083.73
2024-03-01T10:44:43.958Z,99088.56
2024-03-01T10:47:14.664Z,99088.56
2024-03-01T10:49:45.055Z,99088.89
2024-03-01T10:52:12.012Z,99089.14
2024-03-01T10:54:39.302Z,99080.71
2024-03-01T10:57:07.500Z,99079.88
2024-03-01T10:59:34.426Z,99071.06
2024-03-01T11:02:01.420Z,99070.20
2024-03-01T11:04:29.800Z,99067.05
2024-03-01T11:06:57.035Z,99061.54
2024-03-01T11:09:24.091Z,99063.38
2024-03-01T11:11:52.430Z,99065.96
2024-03-01T11:14:19.801Z,99071.57
2024-03-01T11:16:46.951Z,99065.15
2024-03-01T11:19:15.249Z,99067.03
2024-03-01T11:21:42.169Z,99063.98
2024-03-01T11:24:09.117Z,99057.74
2024-03-01T11:26:37.596Z,99057.64
2024-03-01T11:29:04.721Z,99054.70
2024-03-01T11:31:31.835Z,99058.05
2024-03-01T11:34:00.188Z,99061.53
2024-03-01T11:36:27.096Z,99062.55
2024-03-01T11:38:54.237Z,99055.59
2024-03-01T11:41:22.750Z,99056.94
2024-03-01T11:43:50.224Z,99054.17
2024-03-01T11:46:17.366Z,99054.52
2024-03-01T11:48:45.616Z,99052.16
2024-03-01T11:51:12.646Z,99051.41
2024-03-01T11:53:39.701Z,99043.90
2024-03-01T11:56:07.973Z,99038.45
2024-03-01T11:58:35.081Z,99039.92
2024-03-01T12:01:02.179Z,99036.16
2024-03-01T12:03:30.540Z,99035.80
2024-03-01T12:05:57.921Z,99035.92
2024-03-01T12:08:25.276Z,99030.13
2024-03-01T12:10:53.754Z,99025.01
2024-03-01T12:13:20.956Z,99023.84
2024-03-01T12:15:48.045Z,99023.73
2024-03-01T12:18:16.620Z,99019.14
2024-03-01T12:20:43.562Z,99020.89
2024-03-01T12:23:10.511Z,99024.32
2024-03-01T12:25:38.906Z,99026.35
2024-03-01T12:28:05.989Z,99026.64
2024-03-01T12:30:33.386Z,99024.45
2024-03-01T12:33:01.908Z,99029.22
2024-03-01T12:35:28.908Z,99028.19
2024-03-01T12:37:55.862Z,99026.16
2024-03-01T12:40:24.449Z,99024.58
2024-03-01T12:42:51.587Z,99025.09
2024-03-01T12:45:18.778Z,99025.77
2024-03-01T12:47:47.126Z,99027.58
2024-03-01T12:50:14.559Z,99027.11
2024-03-01T12:52:41.673Z,99026.07
2024-03-01T12:55:10.118Z,99021.73
2024-03-01T12:57:37.130Z,99028.34
2024-03-01T13:00:04.197Z,99023.84
2024-03-01T13:02:32.455Z,99022.19
2024-03-01T13:04:59.509Z,99021.41
2024-03-01T13:07:27.321Z,99027.36
2024-03-01T13:09:55.648Z,99021.22
2024-03-01T13:12:22.697Z,99019.02
2024-03-01T13:14:49.647Z,99015.42
2024-03-01T13:17:25.433Z,99011.88
2024-03-01T13:20:01.452Z,99012.98
2024-03-01T13:22:28.444Z,99010.98
2024-03-01T13:24:55.548Z,99010.45
2024-03-01T13:27:23.609Z,99005.23
2024-03-01T13:29:50.554Z,99000.82
2024-03-01T13:32:17.911Z,99000.01
2024-03-01T13:34:45.996Z,98998.95
2024-03-01T13:37:12.950Z,99001.45
2024-03-01T13:39:39.968Z,98998.02
2024-03-01T13:42:08.145Z,98997.71
2024-03-01T13:44:35.210Z,99002.77
2024-03-01T13:47:02.246Z,99001.61
2024-03-01T13:49:30.455Z,99004.02
2024-03-01T13:51:57.594Z,99000.60
2024-03-01T13:54:24.941Z,98998.58
2024-03-01T13:56:53.299Z,98994.31
2024-03-01T13:59:20.803Z,98996.27
2024-03-01T14:01:48.093Z,98996.45
2024-03-01T14:04:16.651Z,98994.61
2024-03-01T14:06:43.833Z,98998.55
2024-03-01T14:09:10.777Z,98997.40
2024-03-01T14:11:39.080Z,98997.28
2024-03-01T14:14:06.106Z,99000.80
2024-03-01T14:16:33.501Z,98997.22
2024-03-01T14:19:01.760Z,98998.71
2024-03-01T14:21:28.685Z,98996.83
2024-03-01T14:23:55.635Z,98997.48
2024-03-01T14:26:23.984Z,99001.09
2024-03-01T14:28:52.947Z,99003.57
2024-03-01T14:31:19.845Z,99013.02
2024-03-01T14:33:48.127Z,99013.44
2024-03-01T14:36:15.388Z,99018.04
2024-03-01T14:38:42.740Z,99024.73
2024-03-01T14:41:11.082Z,99027.85
2024-03-01T14:43:38.176Z,99027.98
2024-03-01T14:46:05.623Z,99028.41
2024-03-01T14:48:34.131Z,99030.26
2024-03-01T14:51:01.219Z,99033.58
2024-03-01T14:53:28.385Z,99031.17
2024-03-01T14:55:56.860Z,99029.73
2024-03-01T14:58:24.014Z,99027.40
2024-03-01T15:00:51.695Z,99025.38
2024-03-01T15:03:20.075Z,99028.86
2024-03-01T15:05:47.193Z,99028.79
2024-03-01T15:08:14.237Z,99031.35
2024-03-01T15:10:44.303Z,99037.14
2024-03-01T15:13:11.739Z,99043.45
2024-03-01T15:15:38.855Z,99043.08
2024-03-01T15:18:07.574Z,99043.86
2024-03-01T15:20:34.595Z,99034.79
2024-03-01T15:23:01.572Z,99035.41
2024-03-01T15:25:29.849Z,99034.44
2024-03-01T15:27:56.956Z,99040.52
2024-03-01T15:30:23.908Z,99043.38
2024-03-01T15:32:52.078Z,99039.80
2024-03-01T15:35:19.124Z,99044.02
2024-03-01T15:37:46.416Z,99041.02
2024-03-01T15:40:14.702Z,99039.41
2024-03-01T15:42:41.802Z,99042.48
2024-03-01T15:45:09.271Z,99045.35
2024-03-01T15:47:37.666Z,99047.84
2024-03-01T15:50:04.790Z,99051.08
2024-03-01T15:52:31.969Z,99053.69
2024-03-01T15:55:00.485Z,99056.34
2024-03-01T15:57:28.073Z,99056.75
2024-03-01T15:59:55.155Z,99060.95
2024-03-01T16:02:23.559Z,99061.85
2024-03-01T16:04:50.737Z,99058.13
2024-03-01T16:07:17.788Z,99063.89
2024-03-01T16:09:46.307Z,99067.75
2024-03-01T16:12:13.428Z,99075.29
2024-03-01T16:14:40.484Z,99074.64
2024-03-01T16:17:08.854Z,99076.02
2024-03-01T16:19:36.026Z,99077.25
2024-03-01T16:22:03.190Z,99078.79
2024-03-01T16:24:32.041Z,99079.14
2024-03-01T16:26:59.074Z,99080.35
2024-03-01T16:29:26.033Z,99078.19
2024-03-01T16:31:54.199Z,99078.70
2024-03-01T16:34:21.425Z,99080.64
2024-03-01T16:36:48.393Z,99085.19
2024-03-01T16:39:16.782Z,99086.83
2024-03-01T16:41:43.923Z,99086.23
2024-03-01T16:44:10.979Z,99082.68
2024-03-01T16:46:39.588Z,99086.69
2024-03-01T16:49:06.739Z,99088.78
2024-03-01T16:51:34.071Z,99090.50
2024-03-01T16:54:02.441Z,99088.73
2024-03-01T16:56:29.584Z,99092.91
2024-03-01T16:58:56.916Z,99094.08
2024-03-01T17:01:25.183Z,99091.95
2024-03-01T17:03:55.053Z,99095.84
2024-03-01T17:06:24.265Z,99097.59
2024-03-01T17:08:51.266Z,99100.91
2024-03-01T17:11:19.787Z,99103.15
2024-03-01T17:13:48.249Z,99103.46
2024-03-01T17:16:15.502Z,99109.23
2024-03-01T17:18:42.421Z,99108.84
2024-03-01T17:21:10.684Z,99108.96
2024-03-01T17:23:37.760Z,99107.81
2024-03-01T17:26:04.901Z,99107.19
2024-03-01T17:28:33.751Z,99109.05
2024-03-01T17:31:00.745Z,99110.54
2024-03-01T17:33:27.765Z,99107.33
2024-03-01T17:35:56.155Z,99104.30
2024-03-01T17:38:24.610Z,99104.98
2024-03-01T17:40:54.285Z,99110.32
2024-03-01T17:43:21.412Z,99111.95
2024-03-01T17:45:48.531Z,99113.10
2024-03-01T17:48:17.132Z,99113.19
2024-03-01T17:50:44.165Z,99109.91
2024-03-01T17:53:11.212Z,99109.48
2024-03-01T17:55:39.511Z,99109.05
2024-03-01T17:58:06.614Z,99108.97
2024-03-01T18:00:33.785Z,99113.30
2024-03-01T18:03:02.156Z,99109.86
2024-03-01T18:05:29.212Z,99114.83
2024-03-01T18:07:56.253Z,99109.78
2024-03-01T18:10:25.605Z,99112.11
2024-03-01T18:12:54.446Z,99111.11
2024-03-01T18:15:23.644Z,99107.65
2024-03-01T18:17:50.828Z,99107.05
2024-03-01T18:20:17.852Z,99107.76
2024-03-01T18:22:46.151Z,99105.91
2024-03-01T18:25:13.174Z,99108.24
2024-03-01T18:27:40.419Z,99110.02
2024-03-01T18:30:09.411Z,99110.38
2024-03-01T18:32:36.986Z,99110.29
2024-03-01T18:35:04.107Z,99108.44
2024-03-01T18:37:32.455Z,99106.38
2024-03-01T18:39:59.529Z,99103.09
2024-03-01T18:42:26.592Z,99103.50
2024-03-01T18:44:54.791Z,99102.46
2024-03-01T18:47:21.706Z,99102.69
2024-03-01T18:49:48.752Z,99101.86
2024-03-01T18:52:17.174Z,99102.39
2024-03-01T18:54:44.593Z,99101.71
2024-03-01T18:57:11.629Z,99101.75
2024-03-01T18:59:39.890Z,99104.09
2024-03-01T19:02:07.486Z,99104.33
2024-03-01T19:04:35.480Z,99103.82
2024-03-01T19:07:04.300Z,99104.70
2024-03-01T19:09:32.006Z,99103.29
2024-03-01T19:11:59.146Z,99102.42
2024-03-01T19:14:27.621Z,99099.45
2024-03-01T19:16:54.776Z,99099.27
2024-03-01T19:19:21.917Z,99098.20
2024-03-01T19:21:50.132Z,99098.91
2024-03-01T19:24:17.354Z,99096.98
2024-03-01T19:26:44.378Z,99096.58
2024-03-01T19:29:12.783Z,99096.08
2024-03-01T19:31:39.882Z,99093.45
2024-03-01T19:34:08.331Z,99095.01
2024-03-01T19:36:36.682Z,99092.56
2024-03-01T19:39:04.229Z,99084.66
2024-03-01T19:41:31.265Z,99088.19
2024-03-01T19:43:59.565Z,99082.27
2024-03-01T19:46:26.811Z,99083.35
2024-03-01T19:48:54.052Z,99087.76
2024-03-01T19:51:22.222Z,99085.50
2024-03-01T19:53:49.479Z,99085.23
2024-03-01T19:56:16.515Z,99082.63
2024-03-01T19:58:45.217Z,99078.81
2024-03-01T20:01:12.298Z,99078.50
2024-03-01T20:03:39.502Z,99074.13
2024-03-01T20:06:07.674Z,99077.45
2024-03-01T20:08:34.845Z,99075.39
2024-03-01T20:11:02.095Z,99075.73
2024-03-01T20:13:30.546Z,99077.64
2024-03-01T20:15:57.602Z,99075.00
2024-03-01T20:18:24.761Z,99072.38
2024-03-01T20:20:53.512Z,99075.89
2024-03-01T20:23:20.593Z,99073.62
2024-03-01T20:25:47.744Z,99080.08
2024-03-01T20:28:16.175Z,99076.20
2024-03-01T20:30:43.296Z,99077.61
2024-03-01T20:33:10.451Z,99084.13
2024-03-01T20:35:38.679Z,99082.52
2024-03-01T20:38:05.729Z,99078.63
2024-03-01T20:40:33.225Z,99078.46
2024-03-01T20:43:01.783Z,99078.24
2024-03-01T20:45:29.005Z,99077.91
2024-03-01T20:47:56.082Z,99078.46
2024-03-01T20:50:24.439Z,99079.52
2024-03-01T20:52:51.504Z,99082.52
2024-03-01T20:55:18.697Z,99081.50
2024-03-01T20:57:47.008Z,99080.61
2024-03-01T21:00:14.065Z,99080.25
2024-03-01T21:02:41.321Z,99082.16
2024-03-01T21:05:09.736Z,99072.16
2024-03-01T21:07:36.965Z,99071.46
2024-03-01T21:10:04.288Z,99074.29
2024-03-01T21:12:32.994Z,99075.59
2024-03-01T21:15:00.147Z,99076.48
2024-03-01T21:17:27.229Z,99080.71
2024-03-01T21:19:55.562Z,99079.51
2024-03-01T21:24:55.103Z,99078.87
2024-03-01T21:27:22.054Z,99076.27
2024-03-01T21:29:49.076Z,99075.76
2024-03-01T21:32:22.243Z,99080.69
2024-03-01T21:34:53.609Z,99081.95
2024-03-01T21:37:20.533Z,99080.77
2024-03-01T21:39:47.649Z,99081.67
2024-03-01T21:42:16.052Z,99081.34
2024-03-01T21:44:43.147Z,99080.66
2024-03-01T21:47:10.164Z,99080.35
2024-03-01T21:49:38.539Z,99087.53
2024-03-01T21:52:05.899Z,99089.30
2024-03-01T21:54:33.980Z,99087.38
2024-03-01T21:57:02.570Z,99085.98
2024-03-01T21:59:29.493Z,99082.67
2024-03-01T22:01:56.436Z,99082.50
2024-03-01T22:04:24.609Z,99085.13
2024-03-01T22:06:51.699Z,99089.37
2024-03-01T22:09:18.931Z,99086.02
2024-03-01T22:11:47.600Z,99075.98
2024-03-01T22:14:14.775Z,99078.66
2024-03-01T22:16:41.789Z,99077.63
2024-03-01T22:19:10.057Z,99080.80
2024-03-01T22:21:37.126Z,99078.18
2024-03-01T22:24:04.153Z,99076.27
2024-03-01T22:26:32.455Z,99070.67
2024-03-01T22:28:59.683Z,99066.48
2024-03-01T22:31:26.725Z,99067.87
2024-03-01T22:33:55.351Z,99068.42
2024-03-01T22:36:22.624Z,99066.73
2024-03-01T22:38:49.720Z,99072.90
2024-03-01T22:41:18.107Z,99066.48
2024-03-01T22:43:45.249Z,99063.73
2024-03-01T22:46:12.297Z,99064.82
2024-03-01T22:48:40.564Z,99062.04
2024-03-01T22:51:07.821Z,99059.65
2024-03-01T22:53:35.308Z,99057.58
2024-03-01T22:56:03.656Z,99060.22
2024-03-01T22:58:30.797Z,99059.73
2024-03-01T23:00:58.027Z,99058.54
2024-03-01T23:03:26.471Z,99058.56
2024-03-01T23:05:53.577Z,99061.20
2024-03-01T23:08:20.728Z,99055.22
2024-03-01T23:10:49.116Z,99053.80
2024-03-01T23:13:16.284Z,99052.91
2024-03-01T23:15:43.821Z,99054.50
2024-03-01T23:18:13.054Z,99049.41
2024-03-01T23:20:40.152Z,99046.58
2024-03-01T23:23:07.103Z,99046.56
2024-03-01T23:25:35.277Z,99047.93
2024-03-01T23:28:02.167Z,99047.73
2024-03-01T23:30:29.167Z,99044.38
2024-03-01T23:32:57.701Z,99042.09
2024-03-01T23:35:24.696Z,99042.23
2024-03-01T23:37:51.628Z,99039.60
2024-03-01T23:40:19.839Z,99040.66
2024-03-01T23:42:46.914Z,99039.44
2024-03-01T23:45:14.066Z,99039.46
2024-03-01T23:47:42.413Z,99038.25
2024-03-01T23:50:09.316Z,99036.33
2024-03-01T23:52:36.270Z,99040.25
2024-03-01T23:55:04.342Z,99040.62
2024-03-01T23:57:31.204Z,99039.23
2024-03-01T23:59:58.326Z,99041.94
